PDT,Max TemperatureF,Mean TemperatureF,Min TemperatureF,Max Dew PointF,MeanDew PointF,Min DewpointF,Max Humidity, Mean Humidity, Min Humidity, Max Sea Level PressureIn, Mean Sea Level PressureIn, Min Sea Level PressureIn, Max VisibilityMiles, Mean VisibilityMiles, Min VisibilityMiles, Max Wind SpeedMPH, Mean Wind SpeedMPH, Max Gust SpeedMPH,PrecipitationIn, CloudCover, Events, WindDirDegrees
2006-7-1,111,98,86,60,53,46,35,22,14,29.82,29.73,29.65,10,10,10,13,6,,0.00,1,,118
2006-7-2,109,98,88,65,58,49,45,28,18,29.88,29.80,29.75,10,10,10,17,6,21,0.00,2,,87
2006-7-3,106,96,87,63,55,48,29,25,20,29.93,29.88,29.83,10,10,10,17,6,,0.00,2,,56
2006-7-4,107,97,87,59,55,52,36,26,17,29.91,29.84,29.76,10,10,10,18,7,23,0.00,2,,306
2006-7-5,104,93,84,63,58,53,38,30,25,29.91,29.81,29.72,10,10,10,15,6,25,0.00,1,,92
2006-7-6,109,94,80,60,53,37,50,26,9,29.88,29.82,29.76,10,10,10,17,7,22,0.00,0,,344
2006-7-7,109,94,81,56,51,46,42,22,17,29.92,29.88,29.83,10,10,10,16,4,22,0.00,1,,91
2006-7-8,111,96,84,57,50,46,40,20,13,29.89,29.82,29.72,10,10,10,14,7,18,0.00,0,,302
2006-7-9,114,100,90,51,46,38,26,16,10,29.77,29.71,29.62,10,10,10,18,10,24,0.00,2,,304
2006-7-10,111,96,82,53,49,41,33,20,12,29.74,29.69,29.62,10,10,10,18,4,,0.00,0,,7
2006-7-11,111,96,81,55,41,17,41,18,4,29.78,29.73,29.69,10,10,10,17,6,21,0.00,0,,306
2006-7-12,113,94,78,47,35,16,33,15,4,29.85,29.79,29.72,10,10,10,18,4,,0.00,0,,146
2006-7-13,116,98,81,52,43,31,36,16,6,29.87,29.80,29.73,10,10,10,17,5,22,0.00,0,,324
2006-7-14,116,100,86,52,47,43,30,17,9,29.85,29.77,29.68,10,10,10,14,5,22,0.00,0,,124
2006-7-15,118,102,87,71,57,48,54,27,11,29.91,29.78,29.68,10,10,10,16,5,,0.00,0,,106
2006-7-16,109,96,84,70,64,56,63,34,22,29.92,29.84,29.75,10,6,1,23,7,33,0.27,1,Rain,101
2006-7-17,102,91,80,72,66,59,74,44,26,29.94,29.86,29.77,10,10,2,21,9,30,0.07,2,Rain,80
2006-7-18,109,98,86,67,61,57,51,32,18,29.85,29.79,29.69,10,10,10,17,6,18,0.00,1,,23
2006-7-19,111,99,87,65,61,53,48,30,15,29.83,29.76,29.68,10,10,10,22,7,17,0.00,2,,48
2006-7-20,113,100,89,64,60,51,42,27,13,29.85,29.80,29.75,10,10,10,17,6,,0.00,2,,338
2006-7-21,120,104,91,63,55,44,35,21,9,29.82,29.75,29.65,10,10,10,16,7,18,0.00,1,,303
2006-7-22,120,108,95,62,53,46,33,18,9,29.76,29.67,29.27,10,10,10,23,6,30,0.00,2,,302
2006-7-23,116,103,91,69,57,50,36,22,13,29.78,29.70,29.60,10,10,10,16,6,21,0.00,2,,300
2006-7-24,113,101,91,63,59,54,38,25,15,29.65,29.60,29.52,10,10,10,20,5,,0.00,2,,306
2006-7-25,107,98,90,73,68,59,51,37,25,29.73,29.64,29.57,10,10,10,14,6,,0.00,2,,116
2006-7-26,104,96,89,75,73,72,63,51,39,29.85,29.79,29.72,10,10,9,15,9,18,0.00,3,,104
2006-7-27,106,96,86,75,68,59,65,44,22,29.89,29.82,29.74,10,10,10,26,10,31,0.00,2,,44
2006-7-28,106,95,83,66,64,61,51,38,25,29.86,29.78,29.69,10,10,10,28,13,32,0.00,0,,316
2006-7-29,101,93,84,66,64,60,55,42,29,29.85,29.78,29.73,10,10,10,28,15,35,0.00,1,,324
2006-7-30,100,91,82,64,61,57,55,41,26,29.81,29.74,29.63,10,10,10,29,15,35,0.00,1,,319
2006-7-31,97,88,79,62,59,55,58,43,27,29.72,29.67,29.61,10,10,10,29,14,36,0.00,0,,323